Madison, WI

1:56 AM CDT en Octubre 26, 2014 (GMT -0500)
Atmospheric, Oceanic and Space Sciences Building | Change Station
CLOSE
Current Station
Estación meteorológica personal
Location: Madison, WI
Altura: 896 ft
Estaciones meteorológicas cercanas

Alt 896 ft 43.07 °N, 89.41 °W | Updated 1 minute ago

Despejado
Despejado
50.7 ° F
Sensación térmica 50.7 ° F
N
13.0
Viento Variable Viento desde NO

Hoy
Alta -- | Baja -- ° F
--% Posibilidad de precipitaciones
Ayer
Alta -- | Baja -- ° F
Precip. -- pul
7:24 AM 5:57 PM
Creciente, 6% visible
Presión 30.02 pul
Visibilidad 10.0 Millas
Nubes Despejado
Punto de rocío 27 ° F
Humedad 39%
Precipitaciones 0.00 pul
Espesor de la nieve No disponible.
UV 0 de una escala de 12
Polen 1.60 de una escala de 12
PM2.5 Buena
Flu Activity Sporadic
METAR KMSN 260653Z 30005KT 10SM CLR 08/M02 A3001 RMK AO2 SLP164 T00831022

More Conditions Fewer Conditions

Presión 30.02 pul
Visibilidad 10.0 Millas
Nubes Despejado
Punto de rocío 27 ° F
Humedad 39%
Precipitaciones 0.00 pul
Espesor de la nieve No disponible.
UV 0 de una escala de 12
Polen 1.60 de una escala de 12
PM2.5 Buena
Flu Activity Sporadic
METAR KMSN 260653Z 30005KT 10SM CLR 08/M02 A3001 RMK AO2 SLP164 T00831022

More Conditions Fewer Conditions

10-Day Weather Forecast

Almanac

Astronomía

Oct. 26, 2014 Salida Puesta
Hora real 7:24 AM CDT 5:57 PM CDT
Crepúsculo civil 6:55 AM CDT 6:26 PM CDT
Crepúsculo náutico 6:22 AM CDT 7:00 PM CDT
Crepúsculo astronómico 5:49 AM CDT 7:32 PM CDT
Luna 10:05 AM CDT 8:06 PM CDT
Horas de luz 11h 31m
Horas de luz
10h 33m
Tomorrow will be 2m 42s shorter.
Creciente, 6% of the Moon is Illuminated
Hoy
Creciente
Oct 30
Cuarto creciente
Nov 6
Luna llena
Nov 14
Cuarto menguante
Nov 22
Nueva

Extremos de hoy

Máximos del estado Bajos del estado

Community

WunderPhotos

Upload Photos

1,765,117 ¡fotos cargadas!

Nearby

Calidad del aire

  Calidad del aire Índice AQ Contaminante
Ayer Buena
PM2.5
Real Buena
PM2.5
Domingo Buena
PM2.5
Lunes Moderada
PM2.5

Grosos de nieve

Estación Profundido Altura
No tenemos constancia de nieve nueva.

Actividad de terremotos

Ciudad Distance Mag. Tiempo y dato
No hay informes recientes de la actividad sísmica.
Magnitud mínima muestra es 2,5.

Temperaturas de aguas costeras

Lugar Temperatura
Sin partes meteorológicos de las estaciones

Estaciones meteorológicas cercanas